Terminal Aerodrome Forecast
Issued by NWS

Home | Current Version | Previous Version | Text Only | Print | Product List | Glossary On
Versions: 1 2 3 4 5 6 7 8 9 10 11 12 13
000
FTUS44 KOUN 281124
TAFCSM
TAF
KCSM 281124Z 2812/2912 10008KT P6SM BKN150
     FM290000 10011KT P6SM BKN120 PROB30 2901/2904 2SM TSRA BKN035CB
     FM290400 07014KT 3SM TSRA OVC025CB
     FM290900 04016KT P6SM VCSH BKN025=

USA.gov is the U.S. government's official web portal to all federal, state and local government web resources and services.